Forside
METAR-TAF:

METAR-TAF

Lufthavne :

Ludington, Michigan, USA

Breddekreds: 43-58N, længdekreds: 086-24W, højde: 197 m

Aktuelle vejr

Denne rapport blev lavet for 16 minutter siden, kl. 18:36 UTC
Vind 7 kt fra nordnordvest med vindstød på up til 15 kt
Temperatur 0°C
Fugtighed 64%
Tryk 1024 hPa
Sigt: 16.1 km
Overskyet i en højde af 3000 ft

METAR: KLDM 061836Z AUTO 34007G15KT 10SM OVC030 00/M06 A3024 RMK AO2 T10021063

Tid: 13:52 (18:52 UTC)


TAF: fraværende

Vejrobservationer og prognoser fra mere end 4000 lufthavne (METAR og TAF).

De gule og røde prikker repræsenterer de meteorologiske stationer.

Flyt musen over at se navnet på stationen.

Så klik over at se vejr observationer og prognoser.

At skifte det kort: Klik på de grønne knapper med et sort kors for at zoome ind; på den grønne knap med en bindestreg for at zoome ud; eller på de grønne pile for tilstødende kort.


METAR-TAF: